الصفحة الرئيسية
METAR-TAF:

METAR-TAF

مطار :

مدينة الكويت, الكويت

مطار الكويت الدولي

دائرة عرض: 29-13N, خط طول: 047-59E, ارتفاع: 55 متر

مراقبة الطقس الحالي

تاريخ ووقت الإصدار 45 دقيقة قبل الساعة 03:00UTC
ريح 9 عقدة من الجنوب/الجنوب الشرقي
درجة الحرارة 13°درجة مئوية
الرطوبة 88%
ضغط 1014 hPa
الرؤية: 6000 متر
سماء صافية

METAR: OKBK 190300Z 15009KT 6000 SKC 13/11 Q1014 NOSIG

زمن: 06:45 (03:45 UTC)

توقعات

تاريخ ووقت الإصدار 5ساعات و 0 دقيقة قبل الساعة 22:45UTC
التوقعات صالحة من19 الساعة 00 UTC إلى 20 الساعة 06 UTC
ريح 10 عقدة من الجنوب/الجنوب الشرقي تتزايد حتى 25 عقدة
الرؤية: 6000 متر
مؤقت
من 19 الساعة 03 UTC إلى 19 الساعة 15 UTC
الرؤية: 2000 متر
هبوب الغبار

TAF: OKBK 182245Z 1900/2006 15010G25KT 6000 NSC TEMPO 1903/1915 2000 BLDU

أرصاد الطقس والتوقعات من أكثر من 4000 مطار (تقارير الطقس للمطار METAR والتنبؤ بالطقس بالمطارTAF).

المحطات المتاحة هي النقط الصفراء والحمراء على الخريطة.

حرك المؤشر فوق النقطة لمعرفة اسم المحطة.

ثم انقر لمعرفة أرصاد وتوقعات الطقس.

لتغيير الخارطة: اضغط على الأزرار الخضراء مع رمز الصليب الأسود للتكبير. على الزر الأخضر مع شرطة للتصغير، أو على الأسهم الخضراء للخرائط المجاورة.


METAR-TAF: